首页
METAR-TAF:

METAR-TAF

机场 :

Imperial County Airport (Boley Field)

Imperial, 加利福尼亚州, 美国

纬度: 32-50-03N, 经度: 115-34-43W, 海拔: 17米

当前天气观测

该预报发布于54分钟前的22:53 UTC
风速13节,风向东转东南,有时为17节阵风
温度 41°C
湿度 32%
气压 1007 hPa
能見度: 16.1公里
天空无云

METAR: KIPL 212253Z AUTO 12013G17KT 10SM CLR 41/21 A2974 RMK AO2 SLP072 T04110206

时间: 16:47 (23:47 UTC)

预报

该预报发布于27分钟前的23:20 UTC
预报有效从22日的 00点(UTC)到 22日的 24点(UTC)
风速12节,风向东南,有时为18节阵风
能見度: 10公里
散云层高于18000英尺
多云层高于25000英尺
从 22日的 0300点(UTC)
风速11节,风向南转南东
能見度: 10公里
散云层高于15000英尺
多云层高于25000英尺

TAF: KIPL 212320Z 2200/2224 14012G18KT P6SM SCT180 BKN250 FM220300 15011KT P6SM SCT150 BKN250

超过4000个机场的气象观测和天气预报(METAR&TAF报告)。

可查询的气象台以黄色和红色小点在地图上表示。

将鼠标移到小点上方,可查看气象台名称。

然后点击查看天气观测和预报。

如需切换地图:点击带黑十字的绿色按钮放大地图;点击带横线的绿色按钮缩小地图;或者点击绿色箭头查看邻近地区的地图。


METAR-TAF: